sensor_id;sensor_type;location;lat;lon;timestamp;P1;durP1;ratioP1;P2;durP2;ratioP2
27899;SDS011;15243;50.726;7.080;2023-05-14T00:00:28;20.42;;;15.48;;
27899;SDS011;15243;50.726;7.080;2023-05-14T00:02:55;20.10;;;14.90;;
27899;SDS011;15243;50.726;7.080;2023-05-14T00:05:23;19.35;;;15.57;;
27899;SDS011;15243;50.726;7.080;2023-05-14T00:07:50;20.23;;;15.50;;
27899;SDS011;15243;50.726;7.080;2023-05-14T00:10:17;20.95;;;15.32;;
27899;SDS011;15243;50.726;7.080;2023-05-14T00:12:46;26.00;;;15.45;;
27899;SDS011;15243;50.726;7.080;2023-05-14T00:15:13;22.38;;;16.05;;
27899;SDS011;15243;50.726;7.080;2023-05-14T00:17:40;21.05;;;15.98;;
27899;SDS011;15243;50.726;7.080;2023-05-14T00:20:08;21.65;;;16.83;;
27899;SDS011;15243;50.726;7.080;2023-05-14T00:22:37;23.02;;;15.38;;
27899;SDS011;15243;50.726;7.080;2023-05-14T00:25:05;24.25;;;17.10;;
27899;SDS011;15243;50.726;7.080;2023-05-14T00:27:33;22.30;;;16.05;;
27899;SDS011;15243;50.726;7.080;2023-05-14T00:30:01;20.52;;;14.65;;
27899;SDS011;15243;50.726;7.080;2023-05-14T00:32:29;19.50;;;14.70;;
27899;SDS011;15243;50.726;7.080;2023-05-14T00:34:56;19.20;;;15.52;;
27899;SDS011;15243;50.726;7.080;2023-05-14T00:37:23;18.25;;;14.85;;
27899;SDS011;15243;50.726;7.080;2023-05-14T00:39:50;21.13;;;14.52;;
27899;SDS011;15243;50.726;7.080;2023-05-14T00:42:17;20.30;;;15.82;;
27899;SDS011;15243;50.726;7.080;2023-05-14T00:44:44;19.90;;;15.13;;
27899;SDS011;15243;50.726;7.080;2023-05-14T00:47:11;18.23;;;15.23;;
27899;SDS011;15243;50.726;7.080;2023-05-14T00:49:38;21.83;;;14.65;;
27899;SDS011;15243;50.726;7.080;2023-05-14T00:52:06;22.33;;;17.10;;
27899;SDS011;15243;50.726;7.080;2023-05-14T00:54:33;22.40;;;15.40;;
27899;SDS011;15243;50.726;7.080;2023-05-14T00:57:02;19.17;;;15.48;;
27899;SDS011;15243;50.726;7.080;2023-05-14T00:59:30;22.08;;;16.40;;
27899;SDS011;15243;50.726;7.080;2023-05-14T01:01:57;19.95;;;16.02;;
27899;SDS011;15243;50.726;7.080;2023-05-14T01:04:24;20.13;;;14.48;;
27899;SDS011;15243;50.726;7.080;2023-05-14T01:06:55;19.58;;;15.07;;
27899;SDS011;15243;50.726;7.080;2023-05-14T01:09:41;20.15;;;15.52;;
27899;SDS011;15243;50.726;7.080;2023-05-14T01:17:27;19.98;;;15.52;;
27899;SDS011;15243;50.726;7.080;2023-05-14T01:19:55;25.73;;;15.75;;
27899;SDS011;15243;50.726;7.080;2023-05-14T01:22:24;23.58;;;16.73;;
27899;SDS011;15243;50.726;7.080;2023-05-14T01:24:51;23.02;;;16.13;;
27899;SDS011;15243;50.726;7.080;2023-05-14T01:29:54;22.48;;;15.63;;
27899;SDS011;15243;50.726;7.080;2023-05-14T01:32:33;20.23;;;14.25;;
27899;SDS011;15243;50.726;7.080;2023-05-14T01:35:01;21.33;;;14.93;;
27899;SDS011;15243;50.726;7.080;2023-05-14T01:37:29;19.02;;;14.57;;
27899;SDS011;15243;50.726;7.080;2023-05-14T01:39:57;22.10;;;15.02;;
27899;SDS011;15243;50.726;7.080;2023-05-14T01:42:25;23.90;;;17.10;;
27899;SDS011;15243;50.726;7.080;2023-05-14T01:44:54;19.60;;;14.13;;
27899;SDS011;15243;50.726;7.080;2023-05-14T01:47:21;20.63;;;14.98;;
27899;SDS011;15243;50.726;7.080;2023-05-14T01:49:48;19.65;;;14.48;;
27899;SDS011;15243;50.726;7.080;2023-05-14T01:52:15;22.85;;;16.05;;
27899;SDS011;15243;50.726;7.080;2023-05-14T01:54:46;20.40;;;15.13;;
27899;SDS011;15243;50.726;7.080;2023-05-14T01:57:14;21.67;;;17.05;;
27899;SDS011;15243;50.726;7.080;2023-05-14T01:59:40;26.27;;;16.35;;
27899;SDS011;15243;50.726;7.080;2023-05-14T02:02:08;22.90;;;16.08;;
27899;SDS011;15243;50.726;7.080;2023-05-14T02:04:34;22.58;;;15.80;;
27899;SDS011;15243;50.726;7.080;2023-05-14T02:07:01;23.83;;;17.27;;
27899;SDS011;15243;50.726;7.080;2023-05-14T02:09:28;23.88;;;15.65;;
27899;SDS011;15243;50.726;7.080;2023-05-14T02:11:56;19.85;;;15.07;;
27899;SDS011;15243;50.726;7.080;2023-05-14T02:14:23;20.65;;;16.08;;
27899;SDS011;15243;50.726;7.080;2023-05-14T02:16:49;26.60;;;16.75;;
27899;SDS011;15243;50.726;7.080;2023-05-14T02:19:17;19.83;;;15.32;;
27899;SDS011;15243;50.726;7.080;2023-05-14T02:21:44;18.75;;;15.38;;
27899;SDS011;15243;50.726;7.080;2023-05-14T02:24:11;23.30;;;16.20;;
27899;SDS011;15243;50.726;7.080;2023-05-14T02:26:37;23.42;;;16.92;;
27899;SDS011;15243;50.726;7.080;2023-05-14T02:29:04;25.30;;;16.80;;
27899;SDS011;15243;50.726;7.080;2023-05-14T02:31:31;23.05;;;16.73;;
27899;SDS011;15243;50.726;7.080;2023-05-14T02:33:59;25.05;;;18.40;;
27899;SDS011;15243;50.726;7.080;2023-05-14T02:36:27;23.77;;;17.08;;
27899;SDS011;15243;50.726;7.080;2023-05-14T02:38:54;27.58;;;18.83;;
27899;SDS011;15243;50.726;7.080;2023-05-14T02:41:23;27.50;;;18.55;;
27899;SDS011;15243;50.726;7.080;2023-05-14T02:43:51;23.73;;;18.02;;
27899;SDS011;15243;50.726;7.080;2023-05-14T02:46:18;25.90;;;17.08;;
27899;SDS011;15243;50.726;7.080;2023-05-14T02:48:45;24.08;;;17.20;;
27899;SDS011;15243;50.726;7.080;2023-05-14T02:51:11;25.80;;;17.35;;
27899;SDS011;15243;50.726;7.080;2023-05-14T02:53:38;23.40;;;17.00;;
27899;SDS011;15243;50.726;7.080;2023-05-14T02:56:05;24.50;;;17.65;;
27899;SDS011;15243;50.726;7.080;2023-05-14T02:58:33;23.38;;;16.35;;
27899;SDS011;15243;50.726;7.080;2023-05-14T03:01:00;28.42;;;17.15;;
27899;SDS011;15243;50.726;7.080;2023-05-14T03:03:28;22.60;;;16.92;;
27899;SDS011;15243;50.726;7.080;2023-05-14T03:05:56;25.70;;;17.58;;
27899;SDS011;15243;50.726;7.080;2023-05-14T03:08:23;24.05;;;16.88;;
27899;SDS011;15243;50.726;7.080;2023-05-14T03:10:50;22.05;;;16.98;;
27899;SDS011;15243;50.726;7.080;2023-05-14T03:13:17;31.10;;;20.02;;
27899;SDS011;15243;50.726;7.080;2023-05-14T03:15:46;24.77;;;17.20;;
27899;SDS011;15243;50.726;7.080;2023-05-14T03:18:13;24.48;;;17.17;;
27899;SDS011;15243;50.726;7.080;2023-05-14T03:20:40;24.45;;;17.75;;
27899;SDS011;15243;50.726;7.080;2023-05-14T03:23:07;25.65;;;17.60;;
27899;SDS011;15243;50.726;7.080;2023-05-14T03:25:34;29.17;;;19.73;;
27899;SDS011;15243;50.726;7.080;2023-05-14T03:28:02;25.40;;;19.17;;
27899;SDS011;15243;50.726;7.080;2023-05-14T03:30:29;24.90;;;17.05;;
27899;SDS011;15243;50.726;7.080;2023-05-14T03:32:56;27.15;;;17.73;;
27899;SDS011;15243;50.726;7.080;2023-05-14T03:35:23;24.10;;;18.50;;
27899;SDS011;15243;50.726;7.080;2023-05-14T03:37:50;28.85;;;18.85;;
27899;SDS011;15243;50.726;7.080;2023-05-14T03:40:18;24.20;;;18.23;;
27899;SDS011;15243;50.726;7.080;2023-05-14T03:42:45;25.33;;;18.30;;
27899;SDS011;15243;50.726;7.080;2023-05-14T03:45:12;27.05;;;19.45;;
27899;SDS011;15243;50.726;7.080;2023-05-14T03:47:38;21.63;;;17.63;;
27899;SDS011;15243;50.726;7.080;2023-05-14T03:50:06;22.40;;;18.00;;
27899;SDS011;15243;50.726;7.080;2023-05-14T03:52:33;24.02;;;18.38;;
27899;SDS011;15243;50.726;7.080;2023-05-14T03:55:00;22.90;;;18.42;;
27899;SDS011;15243;50.726;7.080;2023-05-14T03:57:27;26.35;;;19.30;;
27899;SDS011;15243;50.726;7.080;2023-05-14T03:59:54;25.70;;;18.35;;
27899;SDS011;15243;50.726;7.080;2023-05-14T04:02:21;24.10;;;17.83;;
27899;SDS011;15243;50.726;7.080;2023-05-14T04:04:48;25.13;;;19.15;;
27899;SDS011;15243;50.726;7.080;2023-05-14T04:07:15;23.52;;;16.63;;
27899;SDS011;15243;50.726;7.080;2023-05-14T04:09:42;31.40;;;20.08;;
27899;SDS011;15243;50.726;7.080;2023-05-14T04:12:09;25.95;;;18.38;;
27899;SDS011;15243;50.726;7.080;2023-05-14T04:14:36;24.83;;;18.63;;
27899;SDS011;15243;50.726;7.080;2023-05-14T04:17:03;25.13;;;17.75;;
27899;SDS011;15243;50.726;7.080;2023-05-14T04:19:30;23.63;;;17.67;;
27899;SDS011;15243;50.726;7.080;2023-05-14T04:21:57;25.50;;;18.13;;
27899;SDS011;15243;50.726;7.080;2023-05-14T04:24:23;27.20;;;18.58;;
27899;SDS011;15243;50.726;7.080;2023-05-14T04:26:50;30.17;;;19.20;;
27899;SDS011;15243;50.726;7.080;2023-05-14T04:29:17;28.23;;;19.10;;
27899;SDS011;15243;50.726;7.080;2023-05-14T04:31:44;26.52;;;18.27;;
27899;SDS011;15243;50.726;7.080;2023-05-14T04:34:11;33.65;;;19.27;;
27899;SDS011;15243;50.726;7.080;2023-05-14T04:36:38;25.38;;;18.67;;
27899;SDS011;15243;50.726;7.080;2023-05-14T04:39:05;29.73;;;18.27;;
27899;SDS011;15243;50.726;7.080;2023-05-14T04:41:34;26.75;;;18.10;;
27899;SDS011;15243;50.726;7.080;2023-05-14T04:44:02;29.10;;;19.85;;
27899;SDS011;15243;50.726;7.080;2023-05-14T04:46:29;33.03;;;20.05;;
27899;SDS011;15243;50.726;7.080;2023-05-14T04:48:56;25.70;;;18.58;;
27899;SDS011;15243;50.726;7.080;2023-05-14T04:51:23;26.70;;;17.98;;
27899;SDS011;15243;50.726;7.080;2023-05-14T04:53:50;25.35;;;17.15;;
27899;SDS011;15243;50.726;7.080;2023-05-14T04:56:17;23.13;;;17.95;;
27899;SDS011;15243;50.726;7.080;2023-05-14T04:58:44;20.65;;;15.93;;
27899;SDS011;15243;50.726;7.080;2023-05-14T05:01:11;29.15;;;18.05;;
27899;SDS011;15243;50.726;7.080;2023-05-14T05:03:38;25.15;;;18.13;;
27899;SDS011;15243;50.726;7.080;2023-05-14T05:06:05;26.67;;;17.52;;
27899;SDS011;15243;50.726;7.080;2023-05-14T05:08:32;24.80;;;16.52;;
27899;SDS011;15243;50.726;7.080;2023-05-14T05:10:59;22.50;;;17.15;;
27899;SDS011;15243;50.726;7.080;2023-05-14T05:13:26;26.08;;;17.20;;
27899;SDS011;15243;50.726;7.080;2023-05-14T05:15:53;21.08;;;15.77;;
27899;SDS011;15243;50.726;7.080;2023-05-14T05:18:20;25.05;;;17.48;;
27899;SDS011;15243;50.726;7.080;2023-05-14T05:20:47;22.40;;;16.83;;
27899;SDS011;15243;50.726;7.080;2023-05-14T05:23:14;23.80;;;17.10;;
27899;SDS011;15243;50.726;7.080;2023-05-14T05:25:41;20.45;;;15.95;;
27899;SDS011;15243;50.726;7.080;2023-05-14T05:28:08;22.10;;;15.93;;
27899;SDS011;15243;50.726;7.080;2023-05-14T05:30:34;22.67;;;15.98;;
27899;SDS011;15243;50.726;7.080;2023-05-14T05:33:01;20.50;;;15.43;;
27899;SDS011;15243;50.726;7.080;2023-05-14T05:35:28;23.70;;;17.50;;
27899;SDS011;15243;50.726;7.080;2023-05-14T05:37:56;20.67;;;16.17;;
27899;SDS011;15243;50.726;7.080;2023-05-14T05:40:26;21.55;;;15.77;;
27899;SDS011;15243;50.726;7.080;2023-05-14T05:42:53;21.25;;;15.90;;
27899;SDS011;15243;50.726;7.080;2023-05-14T05:45:21;19.02;;;15.48;;
27899;SDS011;15243;50.726;7.080;2023-05-14T05:47:48;21.88;;;16.15;;
27899;SDS011;15243;50.726;7.080;2023-05-14T05:50:15;21.55;;;15.63;;
27899;SDS011;15243;50.726;7.080;2023-05-14T05:52:44;18.63;;;15.68;;
27899;SDS011;15243;50.726;7.080;2023-05-14T05:55:11;17.63;;;14.35;;
27899;SDS011;15243;50.726;7.080;2023-05-14T05:57:38;18.70;;;14.18;;
27899;SDS011;15243;50.726;7.080;2023-05-14T06:00:05;19.23;;;14.60;;
27899;SDS011;15243;50.726;7.080;2023-05-14T06:02:38;21.10;;;14.90;;
27899;SDS011;15243;50.726;7.080;2023-05-14T06:05:07;19.05;;;13.82;;
27899;SDS011;15243;50.726;7.080;2023-05-14T06:07:35;17.30;;;13.00;;
27899;SDS011;15243;50.726;7.080;2023-05-14T06:10:02;18.42;;;13.48;;
27899;SDS011;15243;50.726;7.080;2023-05-14T06:12:29;20.75;;;13.25;;
27899;SDS011;15243;50.726;7.080;2023-05-14T06:14:56;18.98;;;12.93;;
27899;SDS011;15243;50.726;7.080;2023-05-14T06:17:23;20.77;;;13.43;;
27899;SDS011;15243;50.726;7.080;2023-05-14T06:19:51;18.55;;;12.63;;
27899;SDS011;15243;50.726;7.080;2023-05-14T06:22:18;14.93;;;12.38;;
27899;SDS011;15243;50.726;7.080;2023-05-14T06:24:45;16.30;;;11.82;;
27899;SDS011;15243;50.726;7.080;2023-05-14T06:27:12;14.63;;;11.68;;
27899;SDS011;15243;50.726;7.080;2023-05-14T06:29:39;17.38;;;11.90;;
27899;SDS011;15243;50.726;7.080;2023-05-14T06:32:06;14.27;;;11.60;;
27899;SDS011;15243;50.726;7.080;2023-05-14T06:34:34;14.68;;;11.30;;
27899;SDS011;15243;50.726;7.080;2023-05-14T06:37:00;17.33;;;11.75;;
27899;SDS011;15243;50.726;7.080;2023-05-14T06:39:29;17.20;;;11.60;;
27899;SDS011;15243;50.726;7.080;2023-05-14T06:41:56;14.60;;;12.02;;
27899;SDS011;15243;50.726;7.080;2023-05-14T06:44:23;20.33;;;15.10;;
27899;SDS011;15243;50.726;7.080;2023-05-14T06:46:50;18.70;;;15.15;;
27899;SDS011;15243;50.726;7.080;2023-05-14T06:49:17;19.50;;;14.88;;
27899;SDS011;15243;50.726;7.080;2023-05-14T06:51:44;20.60;;;15.32;;
27899;SDS011;15243;50.726;7.080;2023-05-14T06:54:11;20.20;;;16.05;;
27899;SDS011;15243;50.726;7.080;2023-05-14T06:56:38;21.13;;;15.20;;
27899;SDS011;15243;50.726;7.080;2023-05-14T06:59:05;19.98;;;15.02;;
27899;SDS011;15243;50.726;7.080;2023-05-14T07:01:32;19.35;;;14.55;;
27899;SDS011;15243;50.726;7.080;2023-05-14T07:03:59;22.83;;;16.42;;
27899;SDS011;15243;50.726;7.080;2023-05-14T07:06:26;24.13;;;16.45;;
27899;SDS011;15243;50.726;7.080;2023-05-14T07:08:53;23.48;;;16.13;;
27899;SDS011;15243;50.726;7.080;2023-05-14T07:11:20;24.85;;;16.83;;
27899;SDS011;15243;50.726;7.080;2023-05-14T07:13:47;20.88;;;15.45;;
27899;SDS011;15243;50.726;7.080;2023-05-14T07:16:14;20.30;;;15.60;;
27899;SDS011;15243;50.726;7.080;2023-05-14T07:18:41;21.85;;;16.13;;
27899;SDS011;15243;50.726;7.080;2023-05-14T07:21:09;21.17;;;15.73;;
27899;SDS011;15243;50.726;7.080;2023-05-14T07:23:36;21.08;;;15.43;;
27899;SDS011;15243;50.726;7.080;2023-05-14T07:26:04;19.27;;;15.85;;
27899;SDS011;15243;50.726;7.080;2023-05-14T07:28:31;21.80;;;16.52;;
27899;SDS011;15243;50.726;7.080;2023-05-14T07:30:58;21.92;;;15.60;;
27899;SDS011;15243;50.726;7.080;2023-05-14T07:33:26;21.10;;;16.40;;
27899;SDS011;15243;50.726;7.080;2023-05-14T07:35:53;19.92;;;14.80;;
27899;SDS011;15243;50.726;7.080;2023-05-14T07:38:20;23.70;;;15.50;;
27899;SDS011;15243;50.726;7.080;2023-05-14T07:40:47;19.13;;;15.57;;
27899;SDS011;15243;50.726;7.080;2023-05-14T07:43:14;19.10;;;15.38;;
27899;SDS011;15243;50.726;7.080;2023-05-14T07:45:41;19.42;;;14.75;;
27899;SDS011;15243;50.726;7.080;2023-05-14T07:48:08;23.02;;;15.88;;
27899;SDS011;15243;50.726;7.080;2023-05-14T07:50:37;23.02;;;15.40;;
27899;SDS011;15243;50.726;7.080;2023-05-14T07:53:04;22.10;;;16.27;;
27899;SDS011;15243;50.726;7.080;2023-05-14T07:55:30;22.83;;;16.10;;
27899;SDS011;15243;50.726;7.080;2023-05-14T07:57:58;23.73;;;16.58;;
27899;SDS011;15243;50.726;7.080;2023-05-14T08:00:25;20.83;;;14.32;;
27899;SDS011;15243;50.726;7.080;2023-05-14T08:02:53;17.48;;;14.60;;
27899;SDS011;15243;50.726;7.080;2023-05-14T08:05:21;17.80;;;13.98;;
27899;SDS011;15243;50.726;7.080;2023-05-14T08:07:48;16.00;;;13.05;;
27899;SDS011;15243;50.726;7.080;2023-05-14T08:10:15;18.73;;;13.45;;
27899;SDS011;15243;50.726;7.080;2023-05-14T08:12:42;14.40;;;12.77;;
27899;SDS011;15243;50.726;7.080;2023-05-14T08:15:09;14.98;;;11.77;;
27899;SDS011;15243;50.726;7.080;2023-05-14T08:17:36;20.27;;;12.48;;
27899;SDS011;15243;50.726;7.080;2023-05-14T08:20:03;16.60;;;11.52;;
27899;SDS011;15243;50.726;7.080;2023-05-14T08:22:32;17.00;;;12.15;;
27899;SDS011;15243;50.726;7.080;2023-05-14T08:24:59;13.43;;;11.18;;
27899;SDS011;15243;50.726;7.080;2023-05-14T08:27:28;15.45;;;11.80;;
27899;SDS011;15243;50.726;7.080;2023-05-14T08:29:55;17.73;;;11.90;;
27899;SDS011;15243;50.726;7.080;2023-05-14T08:32:23;18.40;;;12.40;;
27899;SDS011;15243;50.726;7.080;2023-05-14T08:34:50;17.38;;;12.20;;
27899;SDS011;15243;50.726;7.080;2023-05-14T08:37:17;12.98;;;11.65;;
27899;SDS011;15243;50.726;7.080;2023-05-14T08:39:44;15.00;;;10.80;;
27899;SDS011;15243;50.726;7.080;2023-05-14T08:42:12;15.55;;;10.55;;
27899;SDS011;15243;50.726;7.080;2023-05-14T08:47:17;13.70;;;10.13;;
27899;SDS011;15243;50.726;7.080;2023-05-14T08:49:46;10.90;;;9.50;;
27899;SDS011;15243;50.726;7.080;2023-05-14T08:52:20;12.35;;;9.90;;
27899;SDS011;15243;50.726;7.080;2023-05-14T08:54:49;10.98;;;8.63;;
27899;SDS011;15243;50.726;7.080;2023-05-14T08:57:19;15.80;;;9.48;;
27899;SDS011;15243;50.726;7.080;2023-05-14T08:59:50;13.93;;;9.93;;
27899;SDS011;15243;50.726;7.080;2023-05-14T09:02:19;11.45;;;9.20;;
27899;SDS011;15243;50.726;7.080;2023-05-14T09:05:05;11.13;;;9.65;;
27899;SDS011;15243;50.726;7.080;2023-05-14T09:07:32;10.40;;;8.63;;
27899;SDS011;15243;50.726;7.080;2023-05-14T09:09:59;11.60;;;8.25;;
27899;SDS011;15243;50.726;7.080;2023-05-14T09:12:28;11.02;;;9.00;;
27899;SDS011;15243;50.726;7.080;2023-05-14T09:14:55;10.15;;;8.88;;
27899;SDS011;15243;50.726;7.080;2023-05-14T09:17:23;9.75;;;7.70;;
27899;SDS011;15243;50.726;7.080;2023-05-14T09:19:52;9.65;;;7.40;;
27899;SDS011;15243;50.726;7.080;2023-05-14T09:22:19;10.38;;;7.65;;
27899;SDS011;15243;50.726;7.080;2023-05-14T09:25:00;10.52;;;8.02;;
27899;SDS011;15243;50.726;7.080;2023-05-14T09:27:35;10.27;;;7.32;;
27899;SDS011;15243;50.726;7.080;2023-05-14T09:30:09;7.28;;;6.57;;
27899;SDS011;15243;50.726;7.080;2023-05-14T09:32:39;7.93;;;7.13;;
27899;SDS011;15243;50.726;7.080;2023-05-14T09:35:15;9.02;;;6.65;;
27899;SDS011;15243;50.726;7.080;2023-05-14T09:37:53;7.05;;;6.35;;
27899;SDS011;15243;50.726;7.080;2023-05-14T09:40:21;6.93;;;6.22;;
27899;SDS011;15243;50.726;7.080;2023-05-14T09:42:50;7.15;;;6.10;;
27899;SDS011;15243;50.726;7.080;2023-05-14T09:45:17;9.98;;;6.65;;
27899;SDS011;15243;50.726;7.080;2023-05-14T09:47:44;8.13;;;6.20;;
27899;SDS011;15243;50.726;7.080;2023-05-14T09:50:11;10.57;;;6.43;;
27899;SDS011;15243;50.726;7.080;2023-05-14T09:52:38;7.57;;;5.93;;
27899;SDS011;15243;50.726;7.080;2023-05-14T09:55:05;10.20;;;4.75;;
27899;SDS011;15243;50.726;7.080;2023-05-14T09:57:34;7.07;;;5.18;;
27899;SDS011;15243;50.726;7.080;2023-05-14T10:00:02;6.35;;;3.95;;
27899;SDS011;15243;50.726;7.080;2023-05-14T10:02:29;4.40;;;3.22;;
27899;SDS011;15243;50.726;7.080;2023-05-14T10:05:03;4.75;;;3.60;;
27899;SDS011;15243;50.726;7.080;2023-05-14T10:07:38;6.13;;;3.45;;
27899;SDS011;15243;50.726;7.080;2023-05-14T10:10:12;3.42;;;3.08;;
27899;SDS011;15243;50.726;7.080;2023-05-14T10:12:42;3.78;;;3.47;;
27899;SDS011;15243;50.726;7.080;2023-05-14T10:15:19;4.55;;;3.92;;
27899;SDS011;15243;50.726;7.080;2023-05-14T10:17:54;4.07;;;3.72;;
27899;SDS011;15243;50.726;7.080;2023-05-14T10:20:24;5.55;;;4.40;;
27899;SDS011;15243;50.726;7.080;2023-05-14T10:22:53;5.38;;;4.07;;
27899;SDS011;15243;50.726;7.080;2023-05-14T10:25:20;4.78;;;4.28;;
27899;SDS011;15243;50.726;7.080;2023-05-14T10:27:48;4.50;;;3.92;;
27899;SDS011;15243;50.726;7.080;2023-05-14T10:30:15;4.72;;;3.80;;
27899;SDS011;15243;50.726;7.080;2023-05-14T10:32:42;8.98;;;3.95;;
27899;SDS011;15243;50.726;7.080;2023-05-14T10:35:16;4.75;;;4.10;;
27899;SDS011;15243;50.726;7.080;2023-05-14T10:37:46;6.20;;;4.18;;
27899;SDS011;15243;50.726;7.080;2023-05-14T10:40:16;5.78;;;3.55;;
27899;SDS011;15243;50.726;7.080;2023-05-14T10:42:45;5.40;;;4.38;;
27899;SDS011;15243;50.726;7.080;2023-05-14T10:45:13;4.70;;;3.92;;
27899;SDS011;15243;50.726;7.080;2023-05-14T10:47:43;7.50;;;4.45;;
27899;SDS011;15243;50.726;7.080;2023-05-14T10:50:14;5.30;;;4.38;;
27899;SDS011;15243;50.726;7.080;2023-05-14T10:52:43;4.85;;;3.88;;
27899;SDS011;15243;50.726;7.080;2023-05-14T10:55:11;4.53;;;4.10;;
27899;SDS011;15243;50.726;7.080;2023-05-14T10:57:41;4.30;;;3.90;;
27899;SDS011;15243;50.726;7.080;2023-05-14T11:00:10;4.07;;;3.67;;
27899;SDS011;15243;50.726;7.080;2023-05-14T11:02:39;4.00;;;3.53;;
27899;SDS011;15243;50.726;7.080;2023-05-14T11:05:12;6.30;;;3.67;;
27899;SDS011;15243;50.726;7.080;2023-05-14T11:10:12;3.83;;;3.42;;
27899;SDS011;15243;50.726;7.080;2023-05-14T11:12:41;6.03;;;3.80;;
27899;SDS011;15243;50.726;7.080;2023-05-14T11:15:10;5.95;;;3.50;;
27899;SDS011;15243;50.726;7.080;2023-05-14T11:17:39;4.07;;;3.55;;
27899;SDS011;15243;50.726;7.080;2023-05-14T11:20:08;7.32;;;3.88;;
27899;SDS011;15243;50.726;7.080;2023-05-14T11:22:37;6.25;;;3.83;;
27899;SDS011;15243;50.726;7.080;2023-05-14T11:25:05;4.38;;;3.97;;
27899;SDS011;15243;50.726;7.080;2023-05-14T11:27:33;6.18;;;3.55;;
27899;SDS011;15243;50.726;7.080;2023-05-14T11:32:38;7.43;;;3.65;;
27899;SDS011;15243;50.726;7.080;2023-05-14T11:35:07;4.78;;;3.53;;
27899;SDS011;15243;50.726;7.080;2023-05-14T11:37:34;5.22;;;4.07;;
27899;SDS011;15243;50.726;7.080;2023-05-14T11:40:01;4.68;;;4.25;;
27899;SDS011;15243;50.726;7.080;2023-05-14T11:42:32;9.25;;;4.65;;
27899;SDS011;15243;50.726;7.080;2023-05-14T11:44:59;3.75;;;3.30;;
27899;SDS011;15243;50.726;7.080;2023-05-14T11:47:27;6.32;;;3.80;;
27899;SDS011;15243;50.726;7.080;2023-05-14T11:49:57;4.45;;;3.25;;
27899;SDS011;15243;50.726;7.080;2023-05-14T11:52:26;6.28;;;3.85;;
27899;SDS011;15243;50.726;7.080;2023-05-14T11:54:53;5.00;;;3.60;;
27899;SDS011;15243;50.726;7.080;2023-05-14T11:57:20;5.10;;;3.85;;
27899;SDS011;15243;50.726;7.080;2023-05-14T11:59:48;5.05;;;3.60;;
27899;SDS011;15243;50.726;7.080;2023-05-14T12:02:23;6.50;;;4.00;;
27899;SDS011;15243;50.726;7.080;2023-05-14T12:04:54;6.82;;;3.78;;
27899;SDS011;15243;50.726;7.080;2023-05-14T12:07:21;5.15;;;3.90;;
27899;SDS011;15243;50.726;7.080;2023-05-14T12:09:48;4.60;;;3.80;;
27899;SDS011;15243;50.726;7.080;2023-05-14T12:12:17;7.78;;;3.70;;
27899;SDS011;15243;50.726;7.080;2023-05-14T12:14:45;5.22;;;3.97;;
27899;SDS011;15243;50.726;7.080;2023-05-14T12:17:17;4.60;;;3.25;;
27899;SDS011;15243;50.726;7.080;2023-05-14T12:19:47;4.15;;;3.33;;
27899;SDS011;15243;50.726;7.080;2023-05-14T12:22:22;6.40;;;3.47;;
27899;SDS011;15243;50.726;7.080;2023-05-14T12:24:56;4.82;;;3.30;;
27899;SDS011;15243;50.726;7.080;2023-05-14T12:27:24;6.00;;;3.55;;
27899;SDS011;15243;50.726;7.080;2023-05-14T12:29:59;4.70;;;3.80;;
27899;SDS011;15243;50.726;7.080;2023-05-14T12:32:50;5.28;;;3.75;;
27899;SDS011;15243;50.726;7.080;2023-05-14T12:35:19;6.00;;;3.97;;
27899;SDS011;15243;50.726;7.080;2023-05-14T12:37:46;4.55;;;3.60;;
27899;SDS011;15243;50.726;7.080;2023-05-14T12:40:13;5.80;;;4.20;;
27899;SDS011;15243;50.726;7.080;2023-05-14T12:42:41;5.63;;;3.88;;
27899;SDS011;15243;50.726;7.080;2023-05-14T12:45:08;8.32;;;4.20;;
27899;SDS011;15243;50.726;7.080;2023-05-14T12:47:35;5.38;;;4.30;;
27899;SDS011;15243;50.726;7.080;2023-05-14T12:50:03;6.07;;;4.28;;
27899;SDS011;15243;50.726;7.080;2023-05-14T12:52:31;6.90;;;5.05;;
27899;SDS011;15243;50.726;7.080;2023-05-14T12:55:04;6.93;;;5.07;;
27899;SDS011;15243;50.726;7.080;2023-05-14T12:57:35;8.40;;;5.20;;
27899;SDS011;15243;50.726;7.080;2023-05-14T13:00:05;6.85;;;5.07;;
27899;SDS011;15243;50.726;7.080;2023-05-14T13:02:33;7.50;;;5.30;;
27899;SDS011;15243;50.726;7.080;2023-05-14T13:05:08;7.60;;;5.65;;
27899;SDS011;15243;50.726;7.080;2023-05-14T13:07:36;10.88;;;4.68;;
27899;SDS011;15243;50.726;7.080;2023-05-14T13:10:03;6.45;;;5.30;;
27899;SDS011;15243;50.726;7.080;2023-05-14T13:12:31;9.50;;;5.15;;
27899;SDS011;15243;50.726;7.080;2023-05-14T13:14:58;5.35;;;4.63;;
27899;SDS011;15243;50.726;7.080;2023-05-14T13:17:25;5.10;;;4.47;;
27899;SDS011;15243;50.726;7.080;2023-05-14T13:19:53;9.40;;;4.20;;
27899;SDS011;15243;50.726;7.080;2023-05-14T13:22:20;7.90;;;4.47;;
27899;SDS011;15243;50.726;7.080;2023-05-14T13:24:47;5.65;;;4.30;;
27899;SDS011;15243;50.726;7.080;2023-05-14T13:27:14;8.57;;;4.28;;
27899;SDS011;15243;50.726;7.080;2023-05-14T13:29:42;5.40;;;4.32;;
27899;SDS011;15243;50.726;7.080;2023-05-14T13:32:08;8.30;;;4.55;;
27899;SDS011;15243;50.726;7.080;2023-05-14T13:34:35;7.90;;;3.70;;
27899;SDS011;15243;50.726;7.080;2023-05-14T13:37:02;7.18;;;4.25;;
27899;SDS011;15243;50.726;7.080;2023-05-14T13:39:29;4.00;;;3.03;;
27899;SDS011;15243;50.726;7.080;2023-05-14T13:41:56;9.40;;;5.85;;
27899;SDS011;15243;50.726;7.080;2023-05-14T13:44:23;9.40;;;5.30;;
27899;SDS011;15243;50.726;7.080;2023-05-14T13:46:50;6.82;;;4.80;;
27899;SDS011;15243;50.726;7.080;2023-05-14T13:49:18;6.07;;;4.60;;
27899;SDS011;15243;50.726;7.080;2023-05-14T13:51:44;6.97;;;4.82;;
27899;SDS011;15243;50.726;7.080;2023-05-14T13:54:12;8.35;;;4.65;;
27899;SDS011;15243;50.726;7.080;2023-05-14T13:56:39;8.30;;;6.03;;
27899;SDS011;15243;50.726;7.080;2023-05-14T13:59:05;11.40;;;6.43;;
27899;SDS011;15243;50.726;7.080;2023-05-14T14:01:32;8.50;;;5.13;;
27899;SDS011;15243;50.726;7.080;2023-05-14T14:04:00;11.90;;;6.72;;
27899;SDS011;15243;50.726;7.080;2023-05-14T14:06:29;19.27;;;8.43;;
27899;SDS011;15243;50.726;7.080;2023-05-14T14:08:57;9.73;;;5.53;;
27899;SDS011;15243;50.726;7.080;2023-05-14T14:11:24;13.48;;;7.38;;
27899;SDS011;15243;50.726;7.080;2023-05-14T14:13:52;8.13;;;6.88;;
27899;SDS011;15243;50.726;7.080;2023-05-14T14:16:19;9.55;;;7.05;;
27899;SDS011;15243;50.726;7.080;2023-05-14T14:18:46;10.23;;;5.90;;
27899;SDS011;15243;50.726;7.080;2023-05-14T14:21:13;7.60;;;6.38;;
27899;SDS011;15243;50.726;7.080;2023-05-14T14:23:46;6.97;;;5.97;;
27899;SDS011;15243;50.726;7.080;2023-05-14T14:26:13;9.77;;;5.78;;
27899;SDS011;15243;50.726;7.080;2023-05-14T14:28:41;7.80;;;6.18;;
27899;SDS011;15243;50.726;7.080;2023-05-14T14:31:09;7.47;;;5.45;;
27899;SDS011;15243;50.726;7.080;2023-05-14T14:33:36;6.43;;;5.15;;
27899;SDS011;15243;50.726;7.080;2023-05-14T14:36:04;6.85;;;4.90;;
27899;SDS011;15243;50.726;7.080;2023-05-14T14:38:31;7.55;;;4.88;;
27899;SDS011;15243;50.726;7.080;2023-05-14T14:40:58;9.90;;;5.10;;
27899;SDS011;15243;50.726;7.080;2023-05-14T14:43:28;5.80;;;4.10;;
27899;SDS011;15243;50.726;7.080;2023-05-14T14:45:55;6.05;;;4.90;;
27899;SDS011;15243;50.726;7.080;2023-05-14T14:50:50;6.78;;;5.22;;
27899;SDS011;15243;50.726;7.080;2023-05-14T14:53:18;5.70;;;4.05;;